createdAt,value
2023-05-13T00:01:41.133Z,3.22
2023-05-13T00:04:49.410Z,3.17
2023-05-13T00:08:01.768Z,2.90
2023-05-13T00:11:09.868Z,3.42
2023-05-13T00:14:17.968Z,3.10
2023-05-13T00:17:27.565Z,3.20
2023-05-13T00:20:35.630Z,3.08
2023-05-13T00:23:43.848Z,3.25
2023-05-13T00:26:51.621Z,3.45
2023-05-13T00:30:00.796Z,3.20
2023-05-13T00:33:10.169Z,3.22
2023-05-13T00:36:18.080Z,3.35
2023-05-13T00:39:26.303Z,3.28
2023-05-13T00:42:34.447Z,3.20
2023-05-13T00:45:42.739Z,3.58
2023-05-13T00:48:52.085Z,3.38
2023-05-13T00:51:59.898Z,3.60
2023-05-13T00:55:09.590Z,3.60
2023-05-13T00:58:18.146Z,3.10
2023-05-13T01:01:31.255Z,3.60
2023-05-13T01:04:44.557Z,3.72
2023-05-13T01:07:57.758Z,3.15
2023-05-13T01:11:07.654Z,3.20
2023-05-13T01:14:17.693Z,3.78
2023-05-13T01:17:27.203Z,3.45
2023-05-13T01:20:36.892Z,5.63
2023-05-13T01:23:46.490Z,12.85
2023-05-13T01:26:55.035Z,3.40
2023-05-13T01:30:03.004Z,3.35
2023-05-13T01:33:13.561Z,3.88
2023-05-13T01:36:21.672Z,3.78
2023-05-13T01:39:31.384Z,3.50
2023-05-13T01:42:43.824Z,3.33
2023-05-13T01:45:51.709Z,3.88
2023-05-13T01:48:59.893Z,3.17
2023-05-13T01:52:08.172Z,3.47
2023-05-13T01:55:17.519Z,3.60
2023-05-13T01:58:27.504Z,4.93
2023-05-13T02:01:35.384Z,3.40
2023-05-13T02:04:43.541Z,3.42
2023-05-13T02:07:51.630Z,3.38
2023-05-13T02:11:01.067Z,3.70
2023-05-13T02:14:10.174Z,3.88
2023-05-13T02:17:18.192Z,3.00
2023-05-13T02:20:26.456Z,3.47
2023-05-13T02:23:34.244Z,3.42
2023-05-13T02:26:45.034Z,5.22
2023-05-13T02:29:53.224Z,4.13
2023-05-13T02:33:02.081Z,3.50
2023-05-13T02:36:10.591Z,3.53
2023-05-13T02:39:18.997Z,3.17
2023-05-13T02:42:28.568Z,6.75
2023-05-13T02:45:37.184Z,3.30
2023-05-13T02:48:45.088Z,3.80
2023-05-13T02:51:52.875Z,3.55
2023-05-13T02:55:08.141Z,3.58
2023-05-13T02:58:18.752Z,3.33
2023-05-13T03:01:28.903Z,3.45
2023-05-13T03:04:36.957Z,3.63
2023-05-13T03:07:44.944Z,3.20
2023-05-13T03:10:52.693Z,4.00
2023-05-13T03:14:02.167Z,10.82
2023-05-13T03:17:10.073Z,41.33
2023-05-13T03:20:18.834Z,39.75
2023-05-13T03:23:27.108Z,34.90
2023-05-13T03:26:37.716Z,5.55
2023-05-13T03:29:47.076Z,19.88
2023-05-13T03:32:56.271Z,3.70
2023-05-13T03:36:04.402Z,3.70
2023-05-13T03:39:13.608Z,3.38
2023-05-13T03:42:23.254Z,3.40
2023-05-13T03:45:33.512Z,4.55
2023-05-13T03:48:47.077Z,4.80
2023-05-13T03:51:55.790Z,11.13
2023-05-13T03:55:04.723Z,20.20
2023-05-13T03:58:14.855Z,3.35
2023-05-13T04:01:24.218Z,5.85
2023-05-13T04:04:31.875Z,33.22
2023-05-13T04:07:39.894Z,6.65
2023-05-13T04:10:48.102Z,4.00
2023-05-13T04:13:56.121Z,23.05
2023-05-13T04:17:06.127Z,3.40
2023-05-13T04:20:14.431Z,3.72
2023-05-13T04:23:22.635Z,4.43
2023-05-13T04:26:30.846Z,3.38
2023-05-13T04:29:38.743Z,3.67
2023-05-13T04:32:48.183Z,11.90
2023-05-13T04:35:57.226Z,3.88
2023-05-13T04:39:05.263Z,3.25
2023-05-13T04:42:13.647Z,4.25
2023-05-13T04:45:21.501Z,71.70
2023-05-13T04:48:31.146Z,4.68
2023-05-13T04:51:39.704Z,4.75
2023-05-13T04:54:48.546Z,3.85
2023-05-13T04:57:57.582Z,4.65
2023-05-13T05:01:05.712Z,3.30
2023-05-13T05:04:15.184Z,4.10
2023-05-13T05:07:24.105Z,26.55
2023-05-13T05:10:33.412Z,154.30
2023-05-13T05:13:42.551Z,864.70
2023-05-13T05:16:50.734Z,953.58
2023-05-13T05:20:00.851Z,418.80
2023-05-13T05:23:10.491Z,796.55
2023-05-13T05:26:19.256Z,54.67
2023-05-13T05:29:27.422Z,88.18
2023-05-13T05:32:36.239Z,138.73
2023-05-13T05:35:47.261Z,31.25
2023-05-13T05:38:58.319Z,4.47
2023-05-13T05:42:12.909Z,20.30
2023-05-13T05:45:21.267Z,26.95
2023-05-13T05:48:29.154Z,73.43
2023-05-13T05:51:38.956Z,140.55
2023-05-13T05:54:48.877Z,941.85
2023-05-13T05:57:57.025Z,890.17
2023-05-13T06:01:06.107Z,896.75
2023-05-13T06:04:14.777Z,901.95
2023-05-13T06:07:24.122Z,882.83
2023-05-13T06:10:32.211Z,846.67
2023-05-13T06:13:40.109Z,2.90
2023-05-13T06:16:48.178Z,3.33
2023-05-13T06:19:57.070Z,3.05
2023-05-13T06:23:06.902Z,3.25
2023-05-13T06:26:14.776Z,3.10
2023-05-13T06:29:22.718Z,3.10
2023-05-13T06:32:30.762Z,3.15
2023-05-13T06:35:38.796Z,2.90
2023-05-13T06:38:49.138Z,2.70
2023-05-13T06:41:57.070Z,3.05
2023-05-13T06:45:12.304Z,3.40
2023-05-13T06:48:20.020Z,3.17
2023-05-13T06:51:28.636Z,2.85
2023-05-13T06:54:37.989Z,10.13
2023-05-13T06:57:46.733Z,7.35
2023-05-13T07:00:55.049Z,3.50
2023-05-13T07:04:02.984Z,2.85
2023-05-13T07:07:10.828Z,2.90
2023-05-13T07:10:20.862Z,3.00
2023-05-13T07:13:29.332Z,3.20
2023-05-13T07:16:37.820Z,3.17
2023-05-13T07:19:45.567Z,3.72
2023-05-13T07:22:53.279Z,2.72
2023-05-13T07:26:02.788Z,3.50
2023-05-13T07:29:10.850Z,2.83
2023-05-13T07:32:18.751Z,2.75
2023-05-13T07:35:27.855Z,3.35
2023-05-13T07:38:35.595Z,3.10
2023-05-13T07:41:44.911Z,2.88
2023-05-13T07:44:53.124Z,3.83
2023-05-13T07:48:01.313Z,2.90
2023-05-13T07:51:09.989Z,3.35
2023-05-13T07:54:18.326Z,2.83
2023-05-13T07:57:27.834Z,2.75
2023-05-13T08:00:36.036Z,2.80
2023-05-13T08:03:44.340Z,2.70
2023-05-13T08:06:52.914Z,3.33
2023-05-13T08:10:01.153Z,3.00
2023-05-13T08:13:10.750Z,5.32
2023-05-13T08:16:18.729Z,7.05
2023-05-13T08:19:26.905Z,4.57
2023-05-13T08:22:34.890Z,3.75
2023-05-13T08:25:42.761Z,4.90
2023-05-13T08:28:54.769Z,5.63
2023-05-13T08:32:03.658Z,14.30
2023-05-13T08:35:11.588Z,4.63
2023-05-13T08:38:19.654Z,4.40
2023-05-13T08:41:27.840Z,9.10
2023-05-13T08:44:37.910Z,25.38
2023-05-13T08:47:49.853Z,3.88
2023-05-13T08:50:58.010Z,3.70
2023-05-13T08:54:06.159Z,3.10
2023-05-13T08:57:14.243Z,3.72
2023-05-13T09:00:23.919Z,3.10
2023-05-13T09:03:31.968Z,3.60
2023-05-13T09:06:40.145Z,3.72
2023-05-13T09:09:48.372Z,3.08
2023-05-13T09:12:56.638Z,3.28
2023-05-13T09:16:07.082Z,4.85
2023-05-13T09:19:15.199Z,5.13
2023-05-13T09:22:23.204Z,4.72
2023-05-13T09:25:31.405Z,2.92
2023-05-13T09:28:39.368Z,3.70
2023-05-13T09:31:49.877Z,2.80
2023-05-13T09:34:57.933Z,2.95
2023-05-13T09:38:16.554Z,2.92
2023-05-13T09:41:25.519Z,3.22
2023-05-13T09:44:33.809Z,2.85
2023-05-13T09:47:43.279Z,3.20
2023-05-13T09:50:52.033Z,3.03
2023-05-13T09:54:04.919Z,2.90
2023-05-13T09:57:14.090Z,2.78
2023-05-13T10:00:32.125Z,3.33
2023-05-13T10:03:42.471Z,3.17
2023-05-13T10:06:50.836Z,3.40
2023-05-13T10:09:59.536Z,3.08
2023-05-13T10:13:09.155Z,3.15
2023-05-13T10:16:18.464Z,2.88
2023-05-13T10:19:27.918Z,2.97
2023-05-13T10:22:35.845Z,2.88
2023-05-13T10:25:43.920Z,3.30
2023-05-13T10:28:51.948Z,3.05
2023-05-13T10:32:00.134Z,3.03
2023-05-13T10:35:11.880Z,3.00
2023-05-13T10:38:23.509Z,3.20
2023-05-13T10:42:01.355Z,4.05
2023-05-13T10:45:10.025Z,3.40
2023-05-13T10:48:18.327Z,3.30
2023-05-13T10:51:27.902Z,3.17
2023-05-13T10:54:38.584Z,3.47
2023-05-13T10:58:08.742Z,3.20
2023-05-13T11:01:17.923Z,3.65
2023-05-13T11:04:26.076Z,3.40
2023-05-13T11:07:38.336Z,4.13
2023-05-13T11:10:49.039Z,3.53
2023-05-13T11:13:57.719Z,3.20
2023-05-13T11:17:10.522Z,3.55
2023-05-13T11:20:19.832Z,3.35
2023-05-13T11:23:29.566Z,3.00
2023-05-13T11:26:47.169Z,3.17
2023-05-13T11:29:55.887Z,4.00
2023-05-13T11:33:08.412Z,3.60
2023-05-13T11:36:16.318Z,3.47
2023-05-13T11:39:26.471Z,3.45
2023-05-13T11:42:34.339Z,2.90
2023-05-13T11:45:42.469Z,2.97
2023-05-13T11:48:50.402Z,4.03
2023-05-13T11:51:59.523Z,3.33
2023-05-13T11:55:09.522Z,3.30
2023-05-13T11:58:17.867Z,3.53
2023-05-13T12:01:26.025Z,3.15
2023-05-13T12:04:34.245Z,4.03
2023-05-13T12:07:42.116Z,3.28
2023-05-13T12:10:51.721Z,3.30
2023-05-13T12:13:59.912Z,3.33
2023-05-13T12:17:07.921Z,3.28
2023-05-13T12:20:16.627Z,3.40
2023-05-13T12:23:24.841Z,3.42
2023-05-13T12:26:34.231Z,3.28
2023-05-13T12:29:43.111Z,3.35
2023-05-13T12:32:51.286Z,3.10
2023-05-13T12:36:17.770Z,3.65
2023-05-13T12:39:26.035Z,3.50
2023-05-13T12:42:35.826Z,3.55
2023-05-13T12:45:45.176Z,3.45
2023-05-13T12:48:55.825Z,3.20
2023-05-13T12:52:04.853Z,3.03
2023-05-13T12:55:13.939Z,6.10
2023-05-13T12:58:23.298Z,3.67
2023-05-13T13:01:31.321Z,3.13
2023-05-13T13:04:39.204Z,3.10
2023-05-13T13:07:47.395Z,3.13
2023-05-13T13:10:55.463Z,3.53
2023-05-13T13:14:05.038Z,3.10
2023-05-13T13:17:13.615Z,7.28
2023-05-13T13:20:22.378Z,3.20
2023-05-13T13:23:30.228Z,6.15
2023-05-13T13:26:38.292Z,20.63
2023-05-13T13:29:47.861Z,3.50
2023-05-13T13:32:55.984Z,3.45
2023-05-13T13:36:04.240Z,3.10
2023-05-13T13:39:12.048Z,2.90
2023-05-13T13:42:21.343Z,3.40
2023-05-13T13:45:31.744Z,3.25
2023-05-13T13:48:39.741Z,3.20
2023-05-13T13:51:47.761Z,3.22
2023-05-13T13:54:56.016Z,3.58
2023-05-13T13:58:04.296Z,3.97
2023-05-13T14:01:14.443Z,3.50
2023-05-13T14:04:23.651Z,3.58
2023-05-13T14:07:31.826Z,3.50
2023-05-13T14:10:40.185Z,2.97
2023-05-13T14:13:48.495Z,3.22
2023-05-13T14:16:58.087Z,3.58
2023-05-13T14:20:07.212Z,4.05
2023-05-13T14:23:15.158Z,4.05
2023-05-13T14:26:23.286Z,4.22
2023-05-13T14:29:31.598Z,3.83
2023-05-13T14:32:42.380Z,3.50
2023-05-13T14:35:51.131Z,4.18
2023-05-13T14:38:59.219Z,3.40
2023-05-13T14:42:07.589Z,3.47
2023-05-13T14:45:18.272Z,3.58
2023-05-13T14:48:28.316Z,3.55
2023-05-13T14:51:36.476Z,3.80
2023-05-13T14:54:44.165Z,3.90
2023-05-13T14:57:52.191Z,4.38
2023-05-13T15:01:00.260Z,3.45
2023-05-13T15:04:09.451Z,14.57
2023-05-13T15:07:17.205Z,18.42
2023-05-13T15:10:25.020Z,3.10
2023-05-13T15:13:35.258Z,16.23
2023-05-13T15:16:43.048Z,3.33
2023-05-13T15:19:52.686Z,3.15
2023-05-13T15:23:00.673Z,3.22
2023-05-13T15:26:08.781Z,2.80
2023-05-13T15:29:17.518Z,6.85
2023-05-13T15:32:25.873Z,3.40
2023-05-13T15:35:35.601Z,3.28
2023-05-13T15:38:43.761Z,3.33
2023-05-13T15:41:51.972Z,3.20
2023-05-13T15:45:00.087Z,4.07
2023-05-13T15:48:08.133Z,4.35
2023-05-13T15:51:18.206Z,3.78
2023-05-13T15:54:26.212Z,3.75
2023-05-13T15:57:34.126Z,3.70
2023-05-13T16:00:42.373Z,3.75
2023-05-13T16:03:50.501Z,3.20
2023-05-13T16:06:59.929Z,3.58
2023-05-13T16:10:08.875Z,4.38
2023-05-13T16:13:19.639Z,4.13
2023-05-13T16:16:28.127Z,4.45
2023-05-13T16:19:40.076Z,4.35
2023-05-13T16:22:50.069Z,5.97
2023-05-13T16:25:58.829Z,6.75
2023-05-13T16:29:08.393Z,9.70
2023-05-13T16:32:24.649Z,9.55
2023-05-13T16:35:42.354Z,8.85
2023-05-13T16:38:55.365Z,13.35
2023-05-13T16:42:05.900Z,9.68
2023-05-13T16:45:18.581Z,12.05
2023-05-13T16:48:28.896Z,10.23
2023-05-13T16:51:42.086Z,6.82
2023-05-13T16:58:01.644Z,4.97
2023-05-13T17:01:09.949Z,3.90
2023-05-13T17:04:19.223Z,3.58
2023-05-13T17:07:29.886Z,3.42
2023-05-13T17:10:39.530Z,4.55
2023-05-13T17:13:50.800Z,3.55
2023-05-13T17:16:59.231Z,3.63
2023-05-13T17:20:08.348Z,3.75
2023-05-13T17:23:17.287Z,3.30
2023-05-13T17:26:27.739Z,3.10
2023-05-13T17:29:35.632Z,4.15
2023-05-13T17:32:43.805Z,3.63
2023-05-13T17:35:52.435Z,4.18
2023-05-13T17:39:00.217Z,3.72
2023-05-13T17:42:09.680Z,3.35
2023-05-13T17:45:17.536Z,3.70
2023-05-13T17:48:25.887Z,3.47
2023-05-13T17:51:33.783Z,4.13
2023-05-13T17:54:41.880Z,3.65
2023-05-13T17:57:51.232Z,3.22
2023-05-13T18:00:59.533Z,4.00
2023-05-13T18:04:07.456Z,3.45
2023-05-13T18:07:15.380Z,3.80
2023-05-13T18:10:23.543Z,3.72
2023-05-13T18:13:33.604Z,3.60
2023-05-13T18:16:41.838Z,3.35
2023-05-13T18:19:49.782Z,3.45
2023-05-13T18:22:57.868Z,3.50
2023-05-13T18:26:06.142Z,5.80
2023-05-13T18:29:15.807Z,4.82
2023-05-13T18:32:23.876Z,4.60
2023-05-13T18:35:31.844Z,3.78
2023-05-13T18:38:40.123Z,3.85
2023-05-13T18:41:48.177Z,3.75
2023-05-13T18:44:57.581Z,3.85
2023-05-13T18:48:06.069Z,3.50
2023-05-13T18:51:16.343Z,3.78
2023-05-13T18:54:29.919Z,13.43
2023-05-13T18:57:41.998Z,3.65
2023-05-13T19:01:01.604Z,3.95
2023-05-13T19:04:10.450Z,3.63
2023-05-13T19:10:51.139Z,4.00
2023-05-13T19:14:02.806Z,3.80
2023-05-13T19:17:21.412Z,3.63
2023-05-13T19:20:31.928Z,3.78
2023-05-13T19:23:47.476Z,3.40
2023-05-13T19:27:04.044Z,28.52
2023-05-13T19:30:28.310Z,80.68
2023-05-13T19:33:43.410Z,4.90
2023-05-13T19:36:58.582Z,5.85
2023-05-13T19:40:10.384Z,6.85
2023-05-13T19:43:25.738Z,9.77
2023-05-13T19:46:39.296Z,9.02
2023-05-13T19:49:50.650Z,9.98
2023-05-13T19:53:06.078Z,9.73
2023-05-13T19:56:19.702Z,11.48
2023-05-13T19:59:28.124Z,10.10
2023-05-13T20:02:52.398Z,12.70
2023-05-13T20:06:02.333Z,9.18
2023-05-13T20:09:11.979Z,6.38
2023-05-13T20:12:19.988Z,7.20
2023-05-13T20:15:28.286Z,6.07
2023-05-13T20:18:37.844Z,5.63
2023-05-13T20:21:47.267Z,4.78
2023-05-13T20:24:55.378Z,4.07
2023-05-13T20:28:03.323Z,3.95
2023-05-13T20:31:11.419Z,4.60
2023-05-13T20:34:19.240Z,7.13
2023-05-13T20:37:29.399Z,7.47
2023-05-13T20:40:37.649Z,8.20
2023-05-13T20:43:46.267Z,8.82
2023-05-13T20:46:54.123Z,13.75
2023-05-13T20:50:02.308Z,11.82
2023-05-13T20:53:11.578Z,9.15
2023-05-13T20:56:19.810Z,7.13
2023-05-13T20:59:28.058Z,5.70
2023-05-13T21:02:35.923Z,5.65
2023-05-13T21:05:43.778Z,6.85
2023-05-13T21:08:53.375Z,7.43
2023-05-13T21:12:01.374Z,9.10
2023-05-13T21:15:12.469Z,6.82
2023-05-13T21:18:21.592Z,5.65
2023-05-13T21:21:29.610Z,6.10
2023-05-13T21:24:38.780Z,5.65
2023-05-13T21:27:47.060Z,5.18
2023-05-13T21:30:55.079Z,4.60
2023-05-13T21:34:03.431Z,10.18
2023-05-13T21:37:11.420Z,19.63
2023-05-13T21:40:20.861Z,89.65
2023-05-13T21:43:29.151Z,106.75
2023-05-13T21:46:37.266Z,289.45
2023-05-13T21:49:45.236Z,251.32
2023-05-13T21:52:53.469Z,581.42
2023-05-13T21:56:03.057Z,409.92
2023-05-13T21:59:10.892Z,361.05
2023-05-13T22:02:19.096Z,309.25
2023-05-13T22:05:26.935Z,236.93
2023-05-13T22:08:34.997Z,266.77
2023-05-13T22:11:44.563Z,218.25
2023-05-13T22:14:53.456Z,199.18
2023-05-13T22:18:01.420Z,231.80
2023-05-13T22:21:09.514Z,208.73
2023-05-13T22:24:17.893Z,291.55
2023-05-13T22:27:27.348Z,517.03
2023-05-13T22:30:35.500Z,634.40
2023-05-13T22:33:44.171Z,755.78
2023-05-13T22:36:52.332Z,831.28
2023-05-13T22:40:00.593Z,4.22
2023-05-13T22:43:10.052Z,3.88
2023-05-13T22:46:17.835Z,3.63
2023-05-13T22:49:25.670Z,3.67
2023-05-13T22:52:33.520Z,4.03
2023-05-13T22:55:41.674Z,3.50
2023-05-13T22:58:51.023Z,3.42
2023-05-13T23:01:59.017Z,2.85
2023-05-13T23:05:07.620Z,3.35
2023-05-13T23:08:15.708Z,3.50
2023-05-13T23:11:23.807Z,3.03
2023-05-13T23:14:32.995Z,3.50
2023-05-13T23:17:41.140Z,3.65
2023-05-13T23:20:51.024Z,3.33
2023-05-13T23:23:58.901Z,3.38
2023-05-13T23:27:07.227Z,3.22
2023-05-13T23:30:17.811Z,3.55
2023-05-13T23:33:25.712Z,3.05
2023-05-13T23:36:33.823Z,3.22
2023-05-13T23:39:41.876Z,3.33
2023-05-13T23:42:50.066Z,2.88
2023-05-13T23:45:59.626Z,3.40
2023-05-13T23:49:07.503Z,4.10
2023-05-13T23:52:15.681Z,3.20
2023-05-13T23:55:23.919Z,3.13
2023-05-13T23:58:31.864Z,3.10
